sensor_id;sensor_type;location;lat;lon;timestamp;P1;durP1;ratioP1;P2;durP2;ratioP2
2434;SDS011;1228;51.022;6.764;2023-11-21T00:01:24;27.27;;;18.07;;
2434;SDS011;1228;51.022;6.764;2023-11-21T00:03:49;30.83;;;18.70;;
2434;SDS011;1228;51.022;6.764;2023-11-21T00:06:15;30.63;;;18.00;;
2434;SDS011;1228;51.022;6.764;2023-11-21T00:08:42;29.70;;;16.70;;
2434;SDS011;1228;51.022;6.764;2023-11-21T00:11:08;28.30;;;17.80;;
2434;SDS011;1228;51.022;6.764;2023-11-21T00:13:33;25.07;;;17.07;;
2434;SDS011;1228;51.022;6.764;2023-11-21T00:16:00;27.53;;;17.40;;
2434;SDS011;1228;51.022;6.764;2023-11-21T00:18:29;27.97;;;17.40;;
2434;SDS011;1228;51.022;6.764;2023-11-21T00:20:55;32.67;;;18.90;;
2434;SDS011;1228;51.022;6.764;2023-11-21T00:23:23;32.40;;;19.80;;
2434;SDS011;1228;51.022;6.764;2023-11-21T00:25:49;29.67;;;17.90;;
2434;SDS011;1228;51.022;6.764;2023-11-21T00:28:16;31.60;;;18.13;;
2434;SDS011;1228;51.022;6.764;2023-11-21T00:30:43;32.77;;;17.67;;
2434;SDS011;1228;51.022;6.764;2023-11-21T00:33:08;30.90;;;18.97;;
2434;SDS011;1228;51.022;6.764;2023-11-21T00:35:34;29.33;;;18.20;;
2434;SDS011;1228;51.022;6.764;2023-11-21T00:38:00;30.17;;;18.13;;
2434;SDS011;1228;51.022;6.764;2023-11-21T00:40:25;27.27;;;17.47;;
2434;SDS011;1228;51.022;6.764;2023-11-21T00:42:52;26.50;;;17.20;;
2434;SDS011;1228;51.022;6.764;2023-11-21T00:45:18;32.10;;;16.27;;
2434;SDS011;1228;51.022;6.764;2023-11-21T00:47:44;26.47;;;15.80;;
2434;SDS011;1228;51.022;6.764;2023-11-21T00:50:10;28.00;;;15.67;;
2434;SDS011;1228;51.022;6.764;2023-11-21T00:52:36;29.23;;;16.17;;
2434;SDS011;1228;51.022;6.764;2023-11-21T00:55:06;26.67;;;15.33;;
2434;SDS011;1228;51.022;6.764;2023-11-21T00:57:33;27.13;;;17.00;;
2434;SDS011;1228;51.022;6.764;2023-11-21T01:00:00;24.27;;;16.40;;
2434;SDS011;1228;51.022;6.764;2023-11-21T01:02:26;22.80;;;15.77;;
2434;SDS011;1228;51.022;6.764;2023-11-21T01:04:51;30.93;;;16.07;;
2434;SDS011;1228;51.022;6.764;2023-11-21T01:07:17;29.07;;;17.27;;
2434;SDS011;1228;51.022;6.764;2023-11-21T01:09:46;25.83;;;17.17;;
2434;SDS011;1228;51.022;6.764;2023-11-21T01:12:13;29.47;;;17.07;;
2434;SDS011;1228;51.022;6.764;2023-11-21T01:14:40;27.50;;;17.47;;
2434;SDS011;1228;51.022;6.764;2023-11-21T01:17:05;29.33;;;17.67;;
2434;SDS011;1228;51.022;6.764;2023-11-21T01:19:32;32.33;;;19.40;;
2434;SDS011;1228;51.022;6.764;2023-11-21T01:21:57;34.60;;;19.10;;
2434;SDS011;1228;51.022;6.764;2023-11-21T01:24:23;42.70;;;20.37;;
2434;SDS011;1228;51.022;6.764;2023-11-21T01:26:49;35.53;;;19.43;;
2434;SDS011;1228;51.022;6.764;2023-11-21T01:29:16;34.23;;;19.17;;
2434;SDS011;1228;51.022;6.764;2023-11-21T01:31:41;34.33;;;19.37;;
2434;SDS011;1228;51.022;6.764;2023-11-21T01:34:09;33.17;;;20.13;;
2434;SDS011;1228;51.022;6.764;2023-11-21T01:36:34;36.13;;;19.00;;
2434;SDS011;1228;51.022;6.764;2023-11-21T01:39:00;29.20;;;17.23;;
2434;SDS011;1228;51.022;6.764;2023-11-21T01:41:27;29.53;;;19.17;;
2434;SDS011;1228;51.022;6.764;2023-11-21T01:43:56;31.53;;;18.40;;
2434;SDS011;1228;51.022;6.764;2023-11-21T01:46:24;34.27;;;19.93;;
2434;SDS011;1228;51.022;6.764;2023-11-21T01:48:54;29.20;;;20.10;;
2434;SDS011;1228;51.022;6.764;2023-11-21T01:51:19;36.77;;;20.93;;
2434;SDS011;1228;51.022;6.764;2023-11-21T01:53:53;38.13;;;22.83;;
2434;SDS011;1228;51.022;6.764;2023-11-21T01:56:19;32.67;;;21.83;;
2434;SDS011;1228;51.022;6.764;2023-11-21T01:58:46;38.10;;;23.10;;
2434;SDS011;1228;51.022;6.764;2023-11-21T02:01:12;41.47;;;23.50;;
2434;SDS011;1228;51.022;6.764;2023-11-21T02:03:39;38.77;;;23.23;;
2434;SDS011;1228;51.022;6.764;2023-11-21T02:06:05;38.77;;;22.93;;
2434;SDS011;1228;51.022;6.764;2023-11-21T02:08:30;44.40;;;24.80;;
2434;SDS011;1228;51.022;6.764;2023-11-21T02:10:56;40.90;;;23.47;;
2434;SDS011;1228;51.022;6.764;2023-11-21T02:13:22;37.53;;;22.67;;
2434;SDS011;1228;51.022;6.764;2023-11-21T02:15:48;54.33;;;25.80;;
2434;SDS011;1228;51.022;6.764;2023-11-21T02:18:17;52.07;;;26.97;;
2434;SDS011;1228;51.022;6.764;2023-11-21T02:20:43;43.20;;;25.40;;
2434;SDS011;1228;51.022;6.764;2023-11-21T02:23:09;51.80;;;26.20;;
2434;SDS011;1228;51.022;6.764;2023-11-21T02:25:34;49.53;;;25.83;;
2434;SDS011;1228;51.022;6.764;2023-11-21T02:28:03;49.27;;;27.00;;
2434;SDS011;1228;51.022;6.764;2023-11-21T02:30:29;52.03;;;26.00;;
2434;SDS011;1228;51.022;6.764;2023-11-21T02:32:56;43.70;;;24.60;;
2434;SDS011;1228;51.022;6.764;2023-11-21T02:35:22;50.30;;;27.43;;
2434;SDS011;1228;51.022;6.764;2023-11-21T02:37:50;50.60;;;26.47;;
2434;SDS011;1228;51.022;6.764;2023-11-21T02:40:16;56.87;;;27.17;;
2434;SDS011;1228;51.022;6.764;2023-11-21T02:42:43;55.60;;;28.17;;
2434;SDS011;1228;51.022;6.764;2023-11-21T02:45:09;53.23;;;27.23;;
2434;SDS011;1228;51.022;6.764;2023-11-21T02:47:39;61.67;;;28.90;;
2434;SDS011;1228;51.022;6.764;2023-11-21T02:50:06;49.53;;;25.83;;
2434;SDS011;1228;51.022;6.764;2023-11-21T02:52:35;56.13;;;27.83;;
2434;SDS011;1228;51.022;6.764;2023-11-21T02:55:03;54.70;;;27.43;;
2434;SDS011;1228;51.022;6.764;2023-11-21T02:57:29;49.97;;;27.90;;
2434;SDS011;1228;51.022;6.764;2023-11-21T02:59:55;54.97;;;28.93;;
2434;SDS011;1228;51.022;6.764;2023-11-21T03:02:21;56.00;;;29.10;;
2434;SDS011;1228;51.022;6.764;2023-11-21T03:04:48;60.73;;;30.83;;
2434;SDS011;1228;51.022;6.764;2023-11-21T03:07:14;52.07;;;29.23;;
2434;SDS011;1228;51.022;6.764;2023-11-21T03:09:40;51.60;;;27.00;;
2434;SDS011;1228;51.022;6.764;2023-11-21T03:12:06;69.33;;;27.43;;
2434;SDS011;1228;51.022;6.764;2023-11-21T03:14:31;44.20;;;26.83;;
2434;SDS011;1228;51.022;6.764;2023-11-21T03:16:57;47.93;;;26.73;;
2434;SDS011;1228;51.022;6.764;2023-11-21T03:19:23;52.60;;;27.57;;
2434;SDS011;1228;51.022;6.764;2023-11-21T03:21:48;55.40;;;28.40;;
2434;SDS011;1228;51.022;6.764;2023-11-21T03:24:14;55.33;;;27.10;;
2434;SDS011;1228;51.022;6.764;2023-11-21T03:26:44;57.10;;;28.63;;
2434;SDS011;1228;51.022;6.764;2023-11-21T03:29:10;54.13;;;27.27;;
2434;SDS011;1228;51.022;6.764;2023-11-21T03:31:35;54.17;;;27.43;;
2434;SDS011;1228;51.022;6.764;2023-11-21T03:34:01;58.90;;;27.67;;
2434;SDS011;1228;51.022;6.764;2023-11-21T03:36:27;54.43;;;26.70;;
2434;SDS011;1228;51.022;6.764;2023-11-21T03:38:52;61.53;;;26.63;;
2434;SDS011;1228;51.022;6.764;2023-11-21T03:41:18;61.13;;;27.80;;
2434;SDS011;1228;51.022;6.764;2023-11-21T03:43:44;58.30;;;27.70;;
2434;SDS011;1228;51.022;6.764;2023-11-21T03:46:09;55.40;;;27.03;;
2434;SDS011;1228;51.022;6.764;2023-11-21T03:48:37;46.53;;;25.70;;
2434;SDS011;1228;51.022;6.764;2023-11-21T03:51:03;56.30;;;25.90;;
2434;SDS011;1228;51.022;6.764;2023-11-21T03:53:29;66.37;;;27.47;;
2434;SDS011;1228;51.022;6.764;2023-11-21T03:55:54;57.80;;;26.37;;
2434;SDS011;1228;51.022;6.764;2023-11-21T03:58:20;56.17;;;25.83;;
2434;SDS011;1228;51.022;6.764;2023-11-21T04:00:46;51.33;;;25.77;;
2434;SDS011;1228;51.022;6.764;2023-11-21T04:03:14;55.40;;;27.07;;
2434;SDS011;1228;51.022;6.764;2023-11-21T04:05:40;61.97;;;25.73;;
2434;SDS011;1228;51.022;6.764;2023-11-21T04:08:06;56.93;;;24.57;;
2434;SDS011;1228;51.022;6.764;2023-11-21T04:10:32;52.60;;;25.57;;
2434;SDS011;1228;51.022;6.764;2023-11-21T04:12:57;55.43;;;24.93;;
2434;SDS011;1228;51.022;6.764;2023-11-21T04:15:23;55.13;;;24.03;;
2434;SDS011;1228;51.022;6.764;2023-11-21T04:17:49;54.40;;;24.20;;
2434;SDS011;1228;51.022;6.764;2023-11-21T04:20:14;59.33;;;25.40;;
2434;SDS011;1228;51.022;6.764;2023-11-21T04:22:41;54.67;;;25.33;;
2434;SDS011;1228;51.022;6.764;2023-11-21T04:25:09;53.07;;;24.40;;
2434;SDS011;1228;51.022;6.764;2023-11-21T04:27:36;58.73;;;24.07;;
2434;SDS011;1228;51.022;6.764;2023-11-21T04:30:03;53.87;;;23.37;;
2434;SDS011;1228;51.022;6.764;2023-11-21T04:32:34;45.10;;;22.93;;
2434;SDS011;1228;51.022;6.764;2023-11-21T04:35:01;54.57;;;22.00;;
2434;SDS011;1228;51.022;6.764;2023-11-21T04:37:29;51.77;;;22.07;;
2434;SDS011;1228;51.022;6.764;2023-11-21T04:39:54;49.47;;;21.70;;
2434;SDS011;1228;51.022;6.764;2023-11-21T04:42:20;51.37;;;22.80;;
2434;SDS011;1228;51.022;6.764;2023-11-21T04:44:47;54.17;;;22.53;;
2434;SDS011;1228;51.022;6.764;2023-11-21T04:47:14;50.20;;;22.67;;
2434;SDS011;1228;51.022;6.764;2023-11-21T04:49:43;56.20;;;23.87;;
2434;SDS011;1228;51.022;6.764;2023-11-21T04:52:10;54.27;;;23.53;;
2434;SDS011;1228;51.022;6.764;2023-11-21T04:54:36;52.00;;;24.60;;
2434;SDS011;1228;51.022;6.764;2023-11-21T04:57:01;52.00;;;23.63;;
2434;SDS011;1228;51.022;6.764;2023-11-21T04:59:27;59.33;;;26.27;;
2434;SDS011;1228;51.022;6.764;2023-11-21T05:01:54;61.30;;;26.43;;
2434;SDS011;1228;51.022;6.764;2023-11-21T05:04:20;58.43;;;26.10;;
2434;SDS011;1228;51.022;6.764;2023-11-21T05:06:49;58.33;;;25.90;;
2434;SDS011;1228;51.022;6.764;2023-11-21T05:09:15;55.57;;;26.67;;
2434;SDS011;1228;51.022;6.764;2023-11-21T05:11:40;62.07;;;27.20;;
2434;SDS011;1228;51.022;6.764;2023-11-21T05:14:06;70.70;;;29.33;;
2434;SDS011;1228;51.022;6.764;2023-11-21T05:16:32;71.70;;;29.87;;
2434;SDS011;1228;51.022;6.764;2023-11-21T05:18:58;80.43;;;30.90;;
2434;SDS011;1228;51.022;6.764;2023-11-21T05:21:26;63.53;;;31.07;;
2434;SDS011;1228;51.022;6.764;2023-11-21T05:23:53;75.83;;;31.47;;
2434;SDS011;1228;51.022;6.764;2023-11-21T05:26:18;74.03;;;30.27;;
2434;SDS011;1228;51.022;6.764;2023-11-21T05:28:44;71.00;;;29.83;;
2434;SDS011;1228;51.022;6.764;2023-11-21T05:31:10;79.63;;;31.50;;
2434;SDS011;1228;51.022;6.764;2023-11-21T05:33:36;76.30;;;31.73;;
2434;SDS011;1228;51.022;6.764;2023-11-21T05:36:02;80.23;;;33.80;;
2434;SDS011;1228;51.022;6.764;2023-11-21T05:38:28;76.50;;;32.27;;
2434;SDS011;1228;51.022;6.764;2023-11-21T05:40:55;72.60;;;32.00;;
2434;SDS011;1228;51.022;6.764;2023-11-21T05:43:20;89.27;;;33.27;;
2434;SDS011;1228;51.022;6.764;2023-11-21T05:45:46;72.73;;;30.47;;
2434;SDS011;1228;51.022;6.764;2023-11-21T05:48:11;86.23;;;33.57;;
2434;SDS011;1228;51.022;6.764;2023-11-21T05:50:37;87.67;;;32.70;;
2434;SDS011;1228;51.022;6.764;2023-11-21T05:53:03;69.70;;;30.07;;
2434;SDS011;1228;51.022;6.764;2023-11-21T05:55:29;73.47;;;31.40;;
2434;SDS011;1228;51.022;6.764;2023-11-21T05:57:56;88.60;;;31.83;;
2434;SDS011;1228;51.022;6.764;2023-11-21T06:00:21;79.67;;;31.93;;
2434;SDS011;1228;51.022;6.764;2023-11-21T06:02:50;86.60;;;31.47;;
2434;SDS011;1228;51.022;6.764;2023-11-21T06:05:18;89.73;;;31.37;;
2434;SDS011;1228;51.022;6.764;2023-11-21T06:07:45;75.23;;;31.03;;
2434;SDS011;1228;51.022;6.764;2023-11-21T06:10:11;87.93;;;30.47;;
2434;SDS011;1228;51.022;6.764;2023-11-21T06:12:39;79.93;;;28.77;;
2434;SDS011;1228;51.022;6.764;2023-11-21T06:15:07;86.57;;;31.10;;
2434;SDS011;1228;51.022;6.764;2023-11-21T06:17:34;86.03;;;29.37;;
2434;SDS011;1228;51.022;6.764;2023-11-21T06:20:06;83.07;;;28.37;;
2434;SDS011;1228;51.022;6.764;2023-11-21T06:22:39;96.00;;;30.13;;
2434;SDS011;1228;51.022;6.764;2023-11-21T06:25:07;81.57;;;28.20;;
2434;SDS011;1228;51.022;6.764;2023-11-21T06:27:37;95.73;;;29.50;;
2434;SDS011;1228;51.022;6.764;2023-11-21T06:30:05;96.60;;;31.67;;
2434;SDS011;1228;51.022;6.764;2023-11-21T06:32:33;89.43;;;28.43;;
2434;SDS011;1228;51.022;6.764;2023-11-21T06:35:00;93.57;;;30.27;;
2434;SDS011;1228;51.022;6.764;2023-11-21T06:37:28;102.60;;;30.57;;
2434;SDS011;1228;51.022;6.764;2023-11-21T06:39:54;98.57;;;29.73;;
2434;SDS011;1228;51.022;6.764;2023-11-21T06:42:21;102.57;;;30.20;;
2434;SDS011;1228;51.022;6.764;2023-11-21T06:44:48;93.93;;;29.33;;
2434;SDS011;1228;51.022;6.764;2023-11-21T06:47:14;99.67;;;29.90;;
2434;SDS011;1228;51.022;6.764;2023-11-21T06:49:41;91.03;;;29.00;;
2434;SDS011;1228;51.022;6.764;2023-11-21T06:52:08;87.77;;;29.33;;
2434;SDS011;1228;51.022;6.764;2023-11-21T06:54:34;96.27;;;29.30;;
2434;SDS011;1228;51.022;6.764;2023-11-21T06:57:02;92.47;;;28.97;;
2434;SDS011;1228;51.022;6.764;2023-11-21T06:59:30;95.57;;;30.90;;
2434;SDS011;1228;51.022;6.764;2023-11-21T07:01:56;97.80;;;30.87;;
2434;SDS011;1228;51.022;6.764;2023-11-21T07:04:22;106.17;;;30.03;;
2434;SDS011;1228;51.022;6.764;2023-11-21T07:06:48;100.07;;;31.67;;
2434;SDS011;1228;51.022;6.764;2023-11-21T07:09:13;108.20;;;31.10;;
2434;SDS011;1228;51.022;6.764;2023-11-21T07:11:40;91.47;;;30.40;;
2434;SDS011;1228;51.022;6.764;2023-11-21T07:14:06;91.30;;;30.10;;
2434;SDS011;1228;51.022;6.764;2023-11-21T07:16:36;110.97;;;32.13;;
2434;SDS011;1228;51.022;6.764;2023-11-21T07:19:06;90.93;;;30.20;;
2434;SDS011;1228;51.022;6.764;2023-11-21T07:21:34;95.90;;;31.03;;
2434;SDS011;1228;51.022;6.764;2023-11-21T07:24:03;98.77;;;32.00;;
2434;SDS011;1228;51.022;6.764;2023-11-21T07:26:29;90.57;;;29.77;;
2434;SDS011;1228;51.022;6.764;2023-11-21T07:28:55;90.40;;;29.70;;
2434;SDS011;1228;51.022;6.764;2023-11-21T07:31:24;82.80;;;30.47;;
2434;SDS011;1228;51.022;6.764;2023-11-21T07:33:50;81.67;;;30.63;;
2434;SDS011;1228;51.022;6.764;2023-11-21T07:36:16;92.53;;;30.27;;
2434;SDS011;1228;51.022;6.764;2023-11-21T07:38:48;84.17;;;28.27;;
2434;SDS011;1228;51.022;6.764;2023-11-21T07:41:14;84.83;;;29.27;;
2434;SDS011;1228;51.022;6.764;2023-11-21T07:43:42;103.83;;;28.87;;
2434;SDS011;1228;51.022;6.764;2023-11-21T07:46:08;88.03;;;28.07;;
2434;SDS011;1228;51.022;6.764;2023-11-21T07:48:34;82.77;;;28.27;;
2434;SDS011;1228;51.022;6.764;2023-11-21T07:51:00;75.77;;;28.70;;
2434;SDS011;1228;51.022;6.764;2023-11-21T07:53:32;74.13;;;27.77;;
2434;SDS011;1228;51.022;6.764;2023-11-21T07:55:58;80.30;;;27.07;;
2434;SDS011;1228;51.022;6.764;2023-11-21T07:58:28;80.33;;;28.40;;
2434;SDS011;1228;51.022;6.764;2023-11-21T08:00:53;86.47;;;27.40;;
2434;SDS011;1228;51.022;6.764;2023-11-21T08:03:19;77.10;;;30.17;;
2434;SDS011;1228;51.022;6.764;2023-11-21T08:05:46;80.50;;;27.73;;
2434;SDS011;1228;51.022;6.764;2023-11-21T08:08:11;79.93;;;27.67;;
2434;SDS011;1228;51.022;6.764;2023-11-21T08:10:37;80.00;;;26.80;;
2434;SDS011;1228;51.022;6.764;2023-11-21T08:13:04;77.87;;;29.27;;
2434;SDS011;1228;51.022;6.764;2023-11-21T08:15:31;81.50;;;29.53;;
2434;SDS011;1228;51.022;6.764;2023-11-21T08:17:57;70.03;;;29.47;;
2434;SDS011;1228;51.022;6.764;2023-11-21T08:20:26;74.50;;;27.90;;
2434;SDS011;1228;51.022;6.764;2023-11-21T08:22:51;69.27;;;28.67;;
2434;SDS011;1228;51.022;6.764;2023-11-21T08:25:17;62.50;;;28.03;;
2434;SDS011;1228;51.022;6.764;2023-11-21T08:27:45;72.57;;;29.80;;
2434;SDS011;1228;51.022;6.764;2023-11-21T08:30:11;74.73;;;31.10;;
2434;SDS011;1228;51.022;6.764;2023-11-21T08:32:39;71.43;;;30.43;;
2434;SDS011;1228;51.022;6.764;2023-11-21T08:35:04;73.70;;;29.73;;
2434;SDS011;1228;51.022;6.764;2023-11-21T08:37:31;81.60;;;30.23;;
2434;SDS011;1228;51.022;6.764;2023-11-21T08:39:58;87.63;;;30.97;;
2434;SDS011;1228;51.022;6.764;2023-11-21T08:42:24;79.00;;;30.20;;
2434;SDS011;1228;51.022;6.764;2023-11-21T08:44:50;85.40;;;32.97;;
2434;SDS011;1228;51.022;6.764;2023-11-21T08:47:16;80.67;;;29.90;;
2434;SDS011;1228;51.022;6.764;2023-11-21T08:49:42;84.27;;;30.30;;
2434;SDS011;1228;51.022;6.764;2023-11-21T08:52:07;85.77;;;31.23;;
2434;SDS011;1228;51.022;6.764;2023-11-21T08:54:34;81.53;;;30.13;;
2434;SDS011;1228;51.022;6.764;2023-11-21T08:56:59;97.43;;;31.37;;
2434;SDS011;1228;51.022;6.764;2023-11-21T08:59:25;81.87;;;29.93;;
2434;SDS011;1228;51.022;6.764;2023-11-21T09:01:51;104.77;;;33.53;;
2434;SDS011;1228;51.022;6.764;2023-11-21T09:04:17;87.20;;;31.13;;
2434;SDS011;1228;51.022;6.764;2023-11-21T09:06:42;90.37;;;30.70;;
2434;SDS011;1228;51.022;6.764;2023-11-21T09:09:08;86.70;;;29.93;;
2434;SDS011;1228;51.022;6.764;2023-11-21T09:11:36;87.73;;;30.43;;
2434;SDS011;1228;51.022;6.764;2023-11-21T09:14:02;93.63;;;28.77;;
2434;SDS011;1228;51.022;6.764;2023-11-21T09:16:31;74.00;;;26.93;;
2434;SDS011;1228;51.022;6.764;2023-11-21T09:18:57;79.47;;;28.10;;
2434;SDS011;1228;51.022;6.764;2023-11-21T09:21:24;60.67;;;22.83;;
2434;SDS011;1228;51.022;6.764;2023-11-21T09:23:50;70.53;;;25.30;;
2434;SDS011;1228;51.022;6.764;2023-11-21T09:26:17;74.47;;;25.20;;
2434;SDS011;1228;51.022;6.764;2023-11-21T09:28:45;68.77;;;25.20;;
2434;SDS011;1228;51.022;6.764;2023-11-21T09:31:14;62.70;;;23.07;;
2434;SDS011;1228;51.022;6.764;2023-11-21T09:33:40;69.60;;;25.17;;
2434;SDS011;1228;51.022;6.764;2023-11-21T09:36:11;73.73;;;26.07;;
2434;SDS011;1228;51.022;6.764;2023-11-21T09:38:38;73.73;;;24.30;;
2434;SDS011;1228;51.022;6.764;2023-11-21T09:41:04;75.93;;;26.73;;
2434;SDS011;1228;51.022;6.764;2023-11-21T09:43:34;61.37;;;22.63;;
2434;SDS011;1228;51.022;6.764;2023-11-21T09:46:01;70.17;;;24.53;;
2434;SDS011;1228;51.022;6.764;2023-11-21T09:48:29;71.17;;;26.00;;
2434;SDS011;1228;51.022;6.764;2023-11-21T09:50:57;74.73;;;26.00;;
2434;SDS011;1228;51.022;6.764;2023-11-21T09:53:24;76.33;;;25.73;;
2434;SDS011;1228;51.022;6.764;2023-11-21T09:55:55;83.67;;;26.73;;
2434;SDS011;1228;51.022;6.764;2023-11-21T09:58:21;70.70;;;27.43;;
2434;SDS011;1228;51.022;6.764;2023-11-21T10:00:52;68.60;;;25.10;;
2434;SDS011;1228;51.022;6.764;2023-11-21T10:03:23;69.70;;;26.33;;
2434;SDS011;1228;51.022;6.764;2023-11-21T10:05:50;76.93;;;27.60;;
2434;SDS011;1228;51.022;6.764;2023-11-21T10:08:18;69.80;;;28.77;;
2434;SDS011;1228;51.022;6.764;2023-11-21T10:10:49;74.50;;;28.03;;
2434;SDS011;1228;51.022;6.764;2023-11-21T10:13:18;77.63;;;29.50;;
2434;SDS011;1228;51.022;6.764;2023-11-21T10:15:44;69.90;;;28.80;;
2434;SDS011;1228;51.022;6.764;2023-11-21T10:18:19;76.87;;;28.17;;
2434;SDS011;1228;51.022;6.764;2023-11-21T10:20:49;71.37;;;27.83;;
2434;SDS011;1228;51.022;6.764;2023-11-21T10:23:19;55.73;;;24.63;;
2434;SDS011;1228;51.022;6.764;2023-11-21T10:25:46;62.50;;;27.90;;
2434;SDS011;1228;51.022;6.764;2023-11-21T10:28:13;61.10;;;25.87;;
2434;SDS011;1228;51.022;6.764;2023-11-21T10:30:39;61.50;;;24.93;;
2434;SDS011;1228;51.022;6.764;2023-11-21T10:33:06;60.50;;;26.00;;
2434;SDS011;1228;51.022;6.764;2023-11-21T10:38:07;64.57;;;27.47;;
2434;SDS011;1228;51.022;6.764;2023-11-21T10:40:42;68.47;;;27.23;;
2434;SDS011;1228;51.022;6.764;2023-11-21T10:43:09;55.10;;;25.77;;
2434;SDS011;1228;51.022;6.764;2023-11-21T10:45:38;44.00;;;22.67;;
2434;SDS011;1228;51.022;6.764;2023-11-21T10:48:10;49.80;;;23.97;;
2434;SDS011;1228;51.022;6.764;2023-11-21T10:50:41;54.93;;;23.73;;
2434;SDS011;1228;51.022;6.764;2023-11-21T10:53:07;47.67;;;23.53;;
2434;SDS011;1228;51.022;6.764;2023-11-21T10:55:33;51.33;;;23.43;;
2434;SDS011;1228;51.022;6.764;2023-11-21T10:58:00;44.90;;;22.50;;
2434;SDS011;1228;51.022;6.764;2023-11-21T11:00:29;44.10;;;20.17;;
2434;SDS011;1228;51.022;6.764;2023-11-21T11:02:56;43.50;;;20.83;;
2434;SDS011;1228;51.022;6.764;2023-11-21T11:05:25;36.90;;;19.93;;
2434;SDS011;1228;51.022;6.764;2023-11-21T11:08:00;37.23;;;19.33;;
2434;SDS011;1228;51.022;6.764;2023-11-21T11:10:29;37.17;;;18.43;;
2434;SDS011;1228;51.022;6.764;2023-11-21T11:12:56;31.30;;;15.87;;
2434;SDS011;1228;51.022;6.764;2023-11-21T11:15:24;39.70;;;16.10;;
2434;SDS011;1228;51.022;6.764;2023-11-21T11:17:51;29.60;;;16.47;;
2434;SDS011;1228;51.022;6.764;2023-11-21T11:20:17;30.87;;;15.80;;
2434;SDS011;1228;51.022;6.764;2023-11-21T11:28:05;28.73;;;15.63;;
2434;SDS011;1228;51.022;6.764;2023-11-21T11:33:52;33.93;;;14.93;;
2434;SDS011;1228;51.022;6.764;2023-11-21T11:36:26;25.23;;;14.73;;
2434;SDS011;1228;51.022;6.764;2023-11-21T11:38:58;31.00;;;15.33;;
2434;SDS011;1228;51.022;6.764;2023-11-21T11:41:27;27.07;;;15.17;;
2434;SDS011;1228;51.022;6.764;2023-11-21T11:43:57;34.47;;;15.63;;
2434;SDS011;1228;51.022;6.764;2023-11-21T11:46:39;30.03;;;15.57;;
2434;SDS011;1228;51.022;6.764;2023-11-21T11:49:07;28.40;;;14.50;;
2434;SDS011;1228;51.022;6.764;2023-11-21T11:51:33;29.27;;;15.67;;
2434;SDS011;1228;51.022;6.764;2023-11-21T11:54:01;32.70;;;16.63;;
2434;SDS011;1228;51.022;6.764;2023-11-21T11:56:30;31.60;;;16.63;;
2434;SDS011;1228;51.022;6.764;2023-11-21T11:59:02;28.73;;;15.63;;
2434;SDS011;1228;51.022;6.764;2023-11-21T12:01:33;26.10;;;15.13;;
2434;SDS011;1228;51.022;6.764;2023-11-21T12:06:44;29.27;;;15.10;;
2434;SDS011;1228;51.022;6.764;2023-11-21T12:09:17;27.63;;;14.97;;
2434;SDS011;1228;51.022;6.764;2023-11-21T12:11:48;30.40;;;14.97;;
2434;SDS011;1228;51.022;6.764;2023-11-21T12:14:14;24.83;;;14.90;;
2434;SDS011;1228;51.022;6.764;2023-11-21T12:16:42;29.03;;;15.93;;
2434;SDS011;1228;51.022;6.764;2023-11-21T12:19:10;27.50;;;15.40;;
2434;SDS011;1228;51.022;6.764;2023-11-21T12:21:36;29.17;;;16.27;;
2434;SDS011;1228;51.022;6.764;2023-11-21T12:24:02;41.33;;;17.63;;
2434;SDS011;1228;51.022;6.764;2023-11-21T12:26:29;27.73;;;16.43;;
2434;SDS011;1228;51.022;6.764;2023-11-21T12:28:54;32.13;;;16.33;;
2434;SDS011;1228;51.022;6.764;2023-11-21T12:31:23;32.50;;;16.93;;
2434;SDS011;1228;51.022;6.764;2023-11-21T12:33:49;31.17;;;17.40;;
2434;SDS011;1228;51.022;6.764;2023-11-21T12:36:15;31.33;;;17.20;;
2434;SDS011;1228;51.022;6.764;2023-11-21T12:38:41;27.97;;;15.97;;
2434;SDS011;1228;51.022;6.764;2023-11-21T12:41:08;29.33;;;16.47;;
2434;SDS011;1228;51.022;6.764;2023-11-21T12:43:37;27.80;;;15.70;;
2434;SDS011;1228;51.022;6.764;2023-11-21T12:46:08;31.57;;;15.90;;
2434;SDS011;1228;51.022;6.764;2023-11-21T12:48:37;33.37;;;16.17;;
2434;SDS011;1228;51.022;6.764;2023-11-21T12:51:11;29.00;;;15.23;;
2434;SDS011;1228;51.022;6.764;2023-11-21T12:53:41;28.40;;;15.70;;
2434;SDS011;1228;51.022;6.764;2023-11-21T12:56:09;29.50;;;14.30;;
2434;SDS011;1228;51.022;6.764;2023-11-21T12:58:37;20.40;;;12.70;;
2434;SDS011;1228;51.022;6.764;2023-11-21T13:01:04;22.37;;;12.87;;
2434;SDS011;1228;51.022;6.764;2023-11-21T13:03:36;18.67;;;11.67;;
2434;SDS011;1228;51.022;6.764;2023-11-21T13:06:02;21.20;;;12.37;;
2434;SDS011;1228;51.022;6.764;2023-11-21T13:08:31;20.53;;;12.73;;
2434;SDS011;1228;51.022;6.764;2023-11-21T13:10:58;23.10;;;12.00;;
2434;SDS011;1228;51.022;6.764;2023-11-21T13:13:25;19.83;;;12.20;;
2434;SDS011;1228;51.022;6.764;2023-11-21T13:15:56;24.87;;;13.53;;
2434;SDS011;1228;51.022;6.764;2023-11-21T13:18:30;24.33;;;12.33;;
2434;SDS011;1228;51.022;6.764;2023-11-21T13:20:56;22.87;;;12.77;;
2434;SDS011;1228;51.022;6.764;2023-11-21T13:23:34;26.87;;;13.50;;
2434;SDS011;1228;51.022;6.764;2023-11-21T13:26:01;21.37;;;12.33;;
2434;SDS011;1228;51.022;6.764;2023-11-21T13:28:31;26.97;;;14.37;;
2434;SDS011;1228;51.022;6.764;2023-11-21T13:31:00;25.47;;;14.40;;
2434;SDS011;1228;51.022;6.764;2023-11-21T13:33:28;30.63;;;14.53;;
2434;SDS011;1228;51.022;6.764;2023-11-21T13:35:54;33.23;;;17.67;;
2434;SDS011;1228;51.022;6.764;2023-11-21T13:38:21;31.53;;;17.13;;
2434;SDS011;1228;51.022;6.764;2023-11-21T13:40:49;35.73;;;17.30;;
2434;SDS011;1228;51.022;6.764;2023-11-21T13:43:22;33.60;;;16.13;;
2434;SDS011;1228;51.022;6.764;2023-11-21T13:45:50;31.70;;;17.77;;
2434;SDS011;1228;51.022;6.764;2023-11-21T13:48:25;28.63;;;15.37;;
2434;SDS011;1228;51.022;6.764;2023-11-21T13:50:57;27.47;;;14.80;;
2434;SDS011;1228;51.022;6.764;2023-11-21T13:53:26;26.13;;;14.20;;
2434;SDS011;1228;51.022;6.764;2023-11-21T13:55:55;24.30;;;14.40;;
2434;SDS011;1228;51.022;6.764;2023-11-21T13:58:22;29.17;;;14.93;;
2434;SDS011;1228;51.022;6.764;2023-11-21T14:00:59;25.07;;;14.03;;
2434;SDS011;1228;51.022;6.764;2023-11-21T14:03:26;29.83;;;15.13;;
2434;SDS011;1228;51.022;6.764;2023-11-21T14:06:04;24.67;;;13.53;;
2434;SDS011;1228;51.022;6.764;2023-11-21T14:08:39;30.33;;;14.93;;
2434;SDS011;1228;51.022;6.764;2023-11-21T14:11:06;27.20;;;14.90;;
2434;SDS011;1228;51.022;6.764;2023-11-21T14:13:32;29.43;;;14.87;;
2434;SDS011;1228;51.022;6.764;2023-11-21T14:15:58;28.67;;;14.43;;
2434;SDS011;1228;51.022;6.764;2023-11-21T14:18:25;25.67;;;14.50;;
2434;SDS011;1228;51.022;6.764;2023-11-21T14:21:06;28.80;;;15.13;;
2434;SDS011;1228;51.022;6.764;2023-11-21T14:23:35;30.73;;;15.27;;
2434;SDS011;1228;51.022;6.764;2023-11-21T14:26:04;27.67;;;15.93;;
2434;SDS011;1228;51.022;6.764;2023-11-21T14:28:32;31.47;;;15.83;;
2434;SDS011;1228;51.022;6.764;2023-11-21T14:31:01;30.77;;;16.73;;
2434;SDS011;1228;51.022;6.764;2023-11-21T14:33:28;32.87;;;16.90;;
2434;SDS011;1228;51.022;6.764;2023-11-21T14:35:54;29.17;;;17.87;;
2434;SDS011;1228;51.022;6.764;2023-11-21T14:38:20;34.67;;;17.63;;
2434;SDS011;1228;51.022;6.764;2023-11-21T14:40:45;27.53;;;17.43;;
2434;SDS011;1228;51.022;6.764;2023-11-21T14:43:13;30.30;;;17.37;;
2434;SDS011;1228;51.022;6.764;2023-11-21T14:45:39;35.00;;;18.50;;
2434;SDS011;1228;51.022;6.764;2023-11-21T14:48:06;27.80;;;16.50;;
2434;SDS011;1228;51.022;6.764;2023-11-21T14:50:55;39.57;;;17.80;;
2434;SDS011;1228;51.022;6.764;2023-11-21T14:53:27;33.30;;;17.00;;
2434;SDS011;1228;51.022;6.764;2023-11-21T14:56:11;34.00;;;17.80;;
2434;SDS011;1228;51.022;6.764;2023-11-21T14:58:47;34.90;;;16.90;;
2434;SDS011;1228;51.022;6.764;2023-11-21T15:01:13;27.87;;;16.57;;
2434;SDS011;1228;51.022;6.764;2023-11-21T15:03:49;38.33;;;19.20;;